KAXV/AXV METAR and TAF weather

Enter ICAO airport designator
Station Type Date Time Source
KAXV METAR 2018/12/12 22:59 UTC NOAA

KAXV 122259Z AUTO 17007KT 7SM CLR 04/M02 A2989 RMK AO2


Station Type Date Time Source
KAXV Decoded METAR 2018/12/12 22:59 UTC NOAA

Station name not available
Dec 12, 2018 - 05:59 PM EST / 2018.12.12 2259 UTC
Wind: from the S (170 degrees) at 8 MPH (7 KT):0
Visibility: 7 mile(s):0
Sky conditions: clear
Temperature: 39 F (4 C)
Dew Point: 28 F (-2 C)
Relative Humidity: 64%
Pressure (altimeter): 29.89 in. Hg (1012 hPa)
ob: KAXV 122259Z AUTO 17007KT 7SM CLR 04/M02 A2989 RMK AO2
cycle: 23

Station Type Date Time Source
KAXV TAF UTC NOAA

Error!


Example: see airport list